Time;durP1;ratioP1;P1;durP2;ratioP2;P2;SDS_P1;SDS_P2;PMS_P1;PMS_P2;Temp;Humidity;BMP_temperature;BMP_pressure;BME280_temperature;BME280_humidity;BME280_pressure;Samples;Min_cycle;Max_cycle;Signal;HPM_P1;HPM_P2
2022/08/19 00:01:26;;;;;;;6.00;3.33;;;19.90;74.80;;;;;;5091945;28;20197;-58
2022/08/19 00:03:52;;;;;;;4.40;2.17;;;20.00;74.60;;;;;;5117165;28;20191;-58
2022/08/19 00:06:18;;;;;;;8.67;3.20;;;19.90;74.70;;;;;;5078596;28;20272;-58
2022/08/19 00:08:44;;;;;;;5.73;2.80;;;19.90;74.80;;;;;;5097921;28;20180;-58
2022/08/19 00:11:10;;;;;;;7.43;2.80;;;19.90;74.80;;;;;;5072326;28;20284;-58
2022/08/19 00:13:37;;;;;;;5.50;3.20;;;19.90;74.80;;;;;;5056002;28;20181;-58
2022/08/19 00:16:05;;;;;;;7.60;2.73;;;19.80;75.00;;;;;;5077924;28;20192;-58
2022/08/19 00:18:31;;;;;;;5.10;2.70;;;19.80;75.00;;;;;;5076171;28;20185;-58
2022/08/19 00:20:57;;;;;;;5.87;2.47;;;19.80;75.00;;;;;;5084263;28;20207;-58
2022/08/19 00:23:23;;;;;;;7.60;2.93;;;19.70;75.10;;;;;;5087008;28;20238;-58
2022/08/19 00:25:49;;;;;;;6.57;2.53;;;19.70;75.20;;;;;;5071952;28;20225;-58
2022/08/19 00:28:14;;;;;;;8.47;3.13;;;19.80;75.20;;;;;;5077730;28;20196;-58
2022/08/19 00:30:40;;;;;;;5.50;2.90;;;19.80;75.10;;;;;;5096887;28;20184;-58
2022/08/19 00:33:07;;;;;;;6.23;3.50;;;19.70;75.10;;;;;;5081115;28;20279;-58
2022/08/19 00:35:33;;;;;;;8.93;3.90;;;19.80;75.10;;;;;;5081582;28;20226;-58
2022/08/19 00:37:59;;;;;;;8.17;3.60;;;19.80;75.00;;;;;;5077844;28;20185;-58
2022/08/19 00:40:25;;;;;;;8.83;3.97;;;19.80;74.90;;;;;;5090323;28;20199;-58
2022/08/19 00:42:53;;;;;;;6.80;3.30;;;19.80;74.80;;;;;;5080502;28;20238;-58
2022/08/19 00:45:21;;;;;;;5.93;2.80;;;19.80;74.90;;;;;;5080940;28;20181;-58
2022/08/19 00:47:47;;;;;;;6.83;3.10;;;19.70;75.00;;;;;;5090746;28;20174;-58
2022/08/19 00:50:16;;;;;;;9.03;3.63;;;19.70;75.10;;;;;;5098137;28;20282;-58
2022/08/19 00:52:45;;;;;;;10.90;4.17;;;19.70;75.10;;;;;;5090866;28;20272;-58
2022/08/19 00:55:18;;;;;;;7.17;3.83;;;19.80;74.90;;;;;;5084311;28;20191;-58
2022/08/19 00:57:50;;;;;;;6.07;3.63;;;19.70;75.10;;;;;;5109176;28;20191;-58
2022/08/19 01:00:18;;;;;;;14.63;4.53;;;19.70;75.20;;;;;;5117180;27;20192;-58
2022/08/19 01:02:44;;;;;;;10.93;3.87;;;19.70;75.10;;;;;;5110844;28;20203;-58
2022/08/19 01:05:14;;;;;;;9.90;4.90;;;19.70;75.20;;;;;;5081493;28;20249;-58
2022/08/19 01:07:41;;;;;;;11.13;3.93;;;19.70;75.30;;;;;;5088151;28;20199;-58
2022/08/19 01:10:11;;;;;;;10.00;4.47;;;19.70;75.30;;;;;;5085830;28;20237;-58
2022/08/19 01:12:38;;;;;;;7.57;3.80;;;19.70;75.40;;;;;;5115480;28;20267;-58
2022/08/19 01:15:07;;;;;;;7.20;3.67;;;19.70;75.40;;;;;;5110738;28;20189;-58
2022/08/19 01:17:36;;;;;;;8.27;4.13;;;19.70;75.30;;;;;;5095881;28;20221;-58
2022/08/19 01:20:03;;;;;;;7.03;3.60;;;19.70;75.40;;;;;;5095632;28;20196;-58
2022/08/19 01:22:42;;;;;;;10.33;4.00;;;19.70;75.40;;;;;;5095999;28;20187;-58
2022/08/19 01:25:07;;;;;;;6.73;3.90;;;19.70;75.50;;;;;;5102033;28;20255;-58
2022/08/19 01:27:41;;;;;;;6.67;3.40;;;19.70;75.40;;;;;;5095485;28;20208;-58
2022/08/19 01:30:08;;;;;;;12.70;4.20;;;19.70;75.50;;;;;;5098085;28;20184;-58
2022/08/19 01:32:34;;;;;;;9.93;4.43;;;19.80;75.40;;;;;;5110422;28;20184;-58
2022/08/19 01:35:02;;;;;;;7.07;3.80;;;19.80;75.20;;;;;;5077267;28;20185;-58
2022/08/19 01:37:30;;;;;;;8.93;3.83;;;19.80;75.20;;;;;;5082848;28;20184;-58
2022/08/19 01:39:55;;;;;;;7.20;4.10;;;19.80;75.30;;;;;;5094574;28;20207;-58
2022/08/19 01:42:21;;;;;;;10.60;4.47;;;19.80;75.20;;;;;;5096568;28;20185;-58
2022/08/19 01:44:47;;;;;;;9.60;4.63;;;19.80;75.20;;;;;;5069087;27;20232;-58
2022/08/19 01:47:13;;;;;;;9.07;4.10;;;19.70;75.30;;;;;;5086256;28;20275;-58
2022/08/19 01:49:39;;;;;;;8.83;4.73;;;19.70;75.40;;;;;;5086188;28;20195;-58
2022/08/19 01:52:05;;;;;;;10.77;5.00;;;19.70;75.40;;;;;;5088652;28;20184;-58
2022/08/19 01:54:31;;;;;;;6.87;4.00;;;19.70;75.40;;;;;;5095716;28;20222;-58
2022/08/19 01:57:04;;;;;;;7.30;4.87;;;19.70;75.40;;;;;;5094651;28;20177;-58
2022/08/19 01:59:31;;;;;;;9.27;4.57;;;19.70;75.30;;;;;;5077268;28;20179;-58
2022/08/19 02:01:57;;;;;;;9.97;5.00;;;19.70;75.20;;;;;;5096083;28;20180;-58
2022/08/19 02:04:23;;;;;;;6.87;4.43;;;19.70;75.10;;;;;;5068092;28;20269;-58
2022/08/19 02:06:49;;;;;;;7.60;4.23;;;19.70;75.40;;;;;;5074065;28;20181;-58
2022/08/19 02:09:16;;;;;;;8.73;4.10;;;19.70;75.30;;;;;;5085957;28;20225;-58
2022/08/19 02:11:42;;;;;;;7.23;4.27;;;19.70;75.30;;;;;;5078487;28;20256;-58
2022/08/19 02:14:07;;;;;;;6.67;3.97;;;19.50;75.40;;;;;;5089297;28;20271;-58
2022/08/19 02:16:35;;;;;;;9.40;4.20;;;19.50;75.50;;;;;;5091291;27;20357;-58
2022/08/19 02:19:01;;;;;;;7.03;4.43;;;19.50;75.40;;;;;;5113866;28;20224;-58
2022/08/19 02:21:27;;;;;;;7.47;4.10;;;19.60;75.30;;;;;;5085426;28;20219;-58
2022/08/19 02:23:53;;;;;;;6.17;3.80;;;19.70;75.30;;;;;;5079749;28;20202;-58
2022/08/19 02:26:19;;;;;;;6.67;4.33;;;19.60;75.20;;;;;;5061434;28;20229;-58
2022/08/19 02:28:45;;;;;;;9.57;4.33;;;19.60;75.50;;;;;;5085558;28;20196;-58
2022/08/19 02:31:18;;;;;;;8.00;3.80;;;19.70;75.60;;;;;;5113926;28;20183;-58
2022/08/19 02:33:44;;;;;;;6.80;4.20;;;19.60;75.70;;;;;;5119059;28;20347;-58
2022/08/19 02:36:12;;;;;;;8.77;4.23;;;19.60;75.80;;;;;;5077250;28;20188;-58
2022/08/19 02:38:38;;;;;;;9.17;4.70;;;19.60;75.90;;;;;;5097644;28;20188;-58
2022/08/19 02:41:11;;;;;;;8.73;4.03;;;19.60;75.90;;;;;;5071057;28;20219;-58
2022/08/19 02:43:38;;;;;;;7.00;4.20;;;19.70;75.80;;;;;;5099382;28;20218;-58
2022/08/19 02:46:21;;;;;;;11.77;4.17;;;19.60;75.50;;;;;;5099438;28;20184;-58
2022/08/19 02:48:52;;;;;;;9.57;3.90;;;19.60;75.40;;;;;;5097012;28;20198;-58
2022/08/19 02:51:30;;;;;;;9.03;3.93;;;19.60;75.50;;;;;;5089061;28;20192;-58
2022/08/19 02:53:56;;;;;;;8.10;4.43;;;19.60;75.50;;;;;;5091606;28;20179;-58
2022/08/19 02:56:24;;;;;;;9.43;4.33;;;19.60;75.60;;;;;;5108205;28;20191;-58
2022/08/19 02:58:51;;;;;;;8.77;4.70;;;19.50;75.70;;;;;;5102520;28;20183;-58
2022/08/19 03:01:29;;;;;;;8.00;5.00;;;19.60;75.60;;;;;;5102928;28;20241;-58
2022/08/19 03:03:59;;;;;;;8.57;4.53;;;19.60;75.50;;;;;;5099132;28;20184;-58
2022/08/19 03:06:25;;;;;;;9.10;4.97;;;19.60;75.70;;;;;;5104031;28;20252;-58
2022/08/19 03:08:52;;;;;;;11.53;4.37;;;19.60;75.70;;;;;;5094458;28;20224;-58
2022/08/19 03:11:27;;;;;;;9.77;4.73;;;19.60;75.70;;;;;;5092309;28;20191;-58
2022/08/19 03:13:54;;;;;;;11.10;4.87;;;19.60;75.70;;;;;;5092258;28;20187;-58
2022/08/19 03:16:21;;;;;;;6.70;4.60;;;19.60;75.80;;;;;;5102427;28;20194;-58
2022/08/19 03:18:47;;;;;;;8.27;4.97;;;19.70;75.90;;;;;;5090292;28;20184;-58
2022/08/19 03:21:17;;;;;;;9.33;5.17;;;19.70;76.10;;;;;;5082460;28;20318;-58
2022/08/19 03:23:43;;;;;;;10.30;5.07;;;19.70;76.00;;;;;;5084837;28;20176;-58
2022/08/19 03:26:09;;;;;;;8.53;5.07;;;19.60;76.00;;;;;;5093842;28;20255;-58
2022/08/19 03:28:36;;;;;;;8.30;5.00;;;19.70;76.10;;;;;;5102037;28;20180;-58
2022/08/19 03:31:07;;;;;;;7.40;5.00;;;19.60;75.90;;;;;;5118849;28;20184;-58
2022/08/19 03:33:34;;;;;;;7.97;4.60;;;19.60;76.10;;;;;;5101468;28;20241;-58
2022/08/19 03:36:15;;;;;;;8.43;4.67;;;19.70;75.90;;;;;;5102747;28;20242;-58
2022/08/19 03:38:44;;;;;;;8.50;5.00;;;19.60;76.20;;;;;;5101943;28;20183;-58
2022/08/19 03:41:15;;;;;;;8.57;4.90;;;19.60;76.20;;;;;;5100977;28;20216;-58
2022/08/19 03:43:41;;;;;;;10.33;5.17;;;19.60;76.20;;;;;;5086501;28;20270;-58
2022/08/19 03:46:10;;;;;;;12.43;5.30;;;19.60;76.20;;;;;;5097544;28;20181;-58
2022/08/19 03:48:38;;;;;;;9.17;5.20;;;19.60;76.30;;;;;;5087018;28;20204;-58
2022/08/19 03:51:04;;;;;;;6.27;4.57;;;19.70;76.00;;;;;;5098886;28;20195;-58
2022/08/19 03:53:31;;;;;;;6.93;4.33;;;19.70;76.00;;;;;;5079136;28;20187;-58
2022/08/19 03:55:59;;;;;;;7.40;4.70;;;19.60;76.30;;;;;;5081937;28;20184;-58
2022/08/19 03:58:25;;;;;;;12.57;5.57;;;19.70;76.20;;;;;;5116655;28;20202;-58
2022/08/19 04:00:51;;;;;;;8.50;5.23;;;19.70;76.20;;;;;;5077009;28;20227;-58
2022/08/19 04:03:18;;;;;;;7.87;5.23;;;19.70;75.70;;;;;;5061601;28;20189;-58
2022/08/19 04:05:45;;;;;;;11.53;5.77;;;19.70;75.50;;;;;;5076602;28;20191;-58
2022/08/19 04:08:10;;;;;;;10.23;6.03;;;19.70;74.70;;;;;;5084003;28;20184;-58
2022/08/19 04:10:37;;;;;;;9.20;5.50;;;19.70;74.70;;;;;;5085001;28;20215;-58
2022/08/19 04:13:06;;;;;;;13.67;5.93;;;19.80;75.00;;;;;;5097951;28;20216;-58
2022/08/19 04:15:38;;;;;;;11.80;6.80;;;19.80;75.10;;;;;;5093838;28;20185;-58
2022/08/19 04:18:07;;;;;;;14.93;6.97;;;19.80;74.60;;;;;;5076361;28;20189;-58
2022/08/19 04:20:37;;;;;;;13.03;7.07;;;19.80;74.90;;;;;;5095999;28;20196;-58
2022/08/19 04:23:03;;;;;;;12.57;5.90;;;19.90;75.00;;;;;;5098616;28;20179;-58
2022/08/19 04:25:35;;;;;;;11.50;6.47;;;19.90;74.60;;;;;;5061214;28;20233;-58
2022/08/19 04:28:01;;;;;;;6.27;5.00;;;20.00;74.50;;;;;;5090705;28;20176;-58
2022/08/19 04:30:27;;;;;;;10.63;4.93;;;20.00;74.30;;;;;;5081080;28;20184;-58
2022/08/19 04:32:52;;;;;;;7.90;4.63;;;20.00;74.30;;;;;;5067911;28;20271;-58
2022/08/19 04:35:18;;;;;;;9.07;4.40;;;20.00;74.20;;;;;;5078674;28;20176;-58
2022/08/19 04:37:43;;;;;;;4.90;3.33;;;20.00;74.00;;;;;;5069959;28;20192;-58
2022/08/19 04:42:54;;;;;;;8.83;4.10;;;20.10;73.30;;;;;;5092095;28;20318;-58
2022/08/19 04:45:20;;;;;;;7.37;3.77;;;20.10;73.30;;;;;;5070822;28;20252;-58
2022/08/19 04:47:45;;;;;;;7.00;3.80;;;20.20;73.00;;;;;;5069154;28;20185;-58
2022/08/19 04:50:11;;;;;;;7.30;3.50;;;20.20;73.20;;;;;;5077511;28;20200;-58
2022/08/19 04:52:42;;;;;;;6.10;3.73;;;20.30;73.20;;;;;;5087606;28;20211;-58
2022/08/19 04:55:10;;;;;;;7.97;3.73;;;20.30;73.30;;;;;;5091302;28;20313;-58
2022/08/19 04:57:39;;;;;;;5.87;3.60;;;20.30;73.50;;;;;;5076788;28;20195;-57
2022/08/19 05:00:07;;;;;;;6.93;3.23;;;20.30;73.60;;;;;;5097302;28;20204;-57
2022/08/19 05:02:33;;;;;;;5.47;3.70;;;20.30;73.60;;;;;;5117869;27;20168;-58
2022/08/19 05:05:01;;;;;;;5.70;3.27;;;20.40;73.70;;;;;;5078002;28;20268;-57
2022/08/19 05:07:27;;;;;;;6.97;3.80;;;20.40;73.80;;;;;;5098060;28;20184;-58
2022/08/19 05:09:53;;;;;;;4.67;3.33;;;20.50;73.90;;;;;;5086986;27;20264;-57
2022/08/19 05:12:19;;;;;;;7.60;3.80;;;20.40;74.10;;;;;;5096497;28;20203;-58
2022/08/19 05:14:47;;;;;;;5.63;3.87;;;20.40;74.00;;;;;;5085743;28;20279;-58
2022/08/19 05:17:15;;;;;;;7.23;4.13;;;20.50;73.70;;;;;;5096197;28;20188;-58
2022/08/19 05:22:37;;;;;;;9.63;4.53;;;20.50;73.60;;;;;;5099434;28;20233;-57
2022/08/19 05:25:18;;;;;;;10.83;5.00;;;20.50;73.30;;;;;;5077543;27;20262;-58
2022/08/19 05:27:44;;;;;;;6.97;5.10;;;20.60;72.90;;;;;;5108249;28;20234;-57
2022/08/19 05:30:11;;;;;;;11.40;5.77;;;20.60;72.70;;;;;;5092991;28;20204;-57
2022/08/19 05:32:37;;;;;;;8.73;4.47;;;20.50;71.80;;;;;;5077605;28;20192;-58
2022/08/19 05:35:04;;;;;;;6.53;4.67;;;20.60;72.20;;;;;;5075833;28;20268;-57
2022/08/19 05:37:29;;;;;;;8.53;5.00;;;20.60;72.10;;;;;;5115240;28;20188;-58
2022/08/19 05:39:55;;;;;;;11.97;5.13;;;20.70;72.50;;;;;;5096556;28;20195;-58
2022/08/19 05:42:22;;;;;;;8.27;4.90;;;20.70;72.40;;;;;;5092524;28;20204;-58
2022/08/19 05:44:48;;;;;;;5.90;4.40;;;20.70;72.00;;;;;;5088423;28;20184;-58
2022/08/19 05:47:15;;;;;;;8.17;5.03;;;20.80;71.90;;;;;;5095377;28;20188;-58
2022/08/19 05:49:41;;;;;;;8.83;4.87;;;20.80;71.10;;;;;;5088434;28;20182;-58
2022/08/19 05:52:10;;;;;;;10.77;5.30;;;20.80;71.30;;;;;;5109311;27;20203;-57
2022/08/19 05:54:40;;;;;;;10.93;5.23;;;20.80;71.20;;;;;;5087259;28;20177;-58
2022/08/19 05:57:06;;;;;;;9.47;5.77;;;20.80;70.90;;;;;;5074591;28;20223;-58
2022/08/19 05:59:32;;;;;;;8.83;5.40;;;20.80;71.20;;;;;;5117618;27;20192;-58
2022/08/19 06:01:59;;;;;;;10.67;5.67;;;20.90;70.70;;;;;;5078275;28;20213;-57
2022/08/19 06:04:25;;;;;;;14.00;5.77;;;20.90;70.80;;;;;;5081945;28;20211;-57
2022/08/19 06:06:53;;;;;;;6.47;4.73;;;20.90;70.40;;;;;;5084134;28;20185;-57
2022/08/19 06:09:20;;;;;;;7.57;4.30;;;20.90;70.80;;;;;;5104432;28;20213;-57
2022/08/19 06:11:53;;;;;;;8.73;4.40;;;20.90;70.70;;;;;;5114279;28;20212;-58
2022/08/19 06:14:22;;;;;;;13.13;4.67;;;20.90;70.40;;;;;;5096293;28;20271;-58
2022/08/19 06:16:48;;;;;;;7.27;4.43;;;20.90;70.70;;;;;;5114213;28;20205;-57
2022/08/19 06:19:16;;;;;;;7.90;4.53;;;21.00;70.10;;;;;;5095653;28;20192;-57
2022/08/19 06:21:44;;;;;;;7.33;5.03;;;20.90;70.50;;;;;;5086356;28;20208;-58
2022/08/19 06:24:13;;;;;;;8.40;4.23;;;21.00;71.00;;;;;;5115351;27;20657;-58
2022/08/19 06:26:43;;;;;;;7.70;4.33;;;21.00;71.40;;;;;;5095448;28;20204;-58
2022/08/19 06:29:11;;;;;;;9.57;5.40;;;21.00;71.10;;;;;;5106479;28;20188;-58
2022/08/19 06:31:41;;;;;;;11.20;4.73;;;21.00;71.20;;;;;;5072625;28;20220;-58
2022/08/19 06:34:07;;;;;;;6.63;4.73;;;21.10;71.20;;;;;;5092821;28;20195;-58
2022/08/19 06:36:40;;;;;;;7.73;4.80;;;21.00;71.50;;;;;;5096086;28;20184;-58
2022/08/19 06:39:18;;;;;;;5.60;4.30;;;21.10;70.90;;;;;;5100754;28;20195;-58
2022/08/19 06:41:47;;;;;;;9.03;4.63;;;21.10;71.10;;;;;;5111721;28;20216;-58
2022/08/19 06:44:13;;;;;;;7.33;4.53;;;21.10;71.60;;;;;;5107416;28;20189;-58
2022/08/19 06:46:40;;;;;;;6.87;4.07;;;21.20;71.10;;;;;;5084385;28;20188;-58
2022/08/19 06:49:08;;;;;;;6.10;3.93;;;21.20;70.70;;;;;;5091708;28;20242;-58
2022/08/19 06:51:34;;;;;;;5.73;3.87;;;21.20;70.60;;;;;;5087854;28;20188;-58
2022/08/19 06:54:00;;;;;;;6.50;3.73;;;21.30;70.80;;;;;;5091377;28;20207;-58
2022/08/19 06:56:31;;;;;;;7.67;4.13;;;21.30;71.10;;;;;;5076575;28;20197;-57
2022/08/19 06:58:58;;;;;;;7.17;3.77;;;21.30;71.80;;;;;;5082720;28;20188;-58
2022/08/19 07:01:23;;;;;;;6.90;3.40;;;21.40;71.90;;;;;;5092778;28;20204;-58
2022/08/19 07:03:49;;;;;;;6.70;4.07;;;21.40;71.00;;;;;;5075475;28;20188;-57
2022/08/19 07:06:17;;;;;;;6.07;3.23;;;21.50;71.40;;;;;;5077048;28;20190;-58
2022/08/19 07:08:44;;;;;;;6.10;3.60;;;21.60;70.50;;;;;;5092985;28;20184;-58
2022/08/19 07:11:12;;;;;;;7.73;3.90;;;21.50;70.50;;;;;;5089480;28;20280;-57
2022/08/19 07:13:39;;;;;;;5.70;3.77;;;21.60;70.20;;;;;;5072932;28;20199;-57
2022/08/19 07:16:12;;;;;;;5.33;3.30;;;21.60;69.10;;;;;;5108342;28;20196;-58
2022/08/19 07:18:38;;;;;;;5.50;3.50;;;21.60;69.40;;;;;;5085290;28;20260;-57
2022/08/19 07:21:07;;;;;;;6.40;3.37;;;21.60;69.40;;;;;;5079490;28;20212;-58
2022/08/19 07:23:33;;;;;;;8.33;3.97;;;21.60;69.20;;;;;;5098577;28;20180;-57
2022/08/19 07:26:14;;;;;;;6.87;3.20;;;21.60;68.70;;;;;;5116768;28;20232;-58
2022/08/19 07:28:40;;;;;;;6.27;4.10;;;21.70;69.70;;;;;;5113750;28;20180;-57
2022/08/19 07:31:07;;;;;;;4.80;3.07;;;21.60;69.40;;;;;;5115139;28;20195;-58
2022/08/19 07:33:36;;;;;;;7.17;3.50;;;21.60;69.30;;;;;;5078851;28;20185;-57
2022/08/19 07:36:05;;;;;;;5.97;3.70;;;21.60;70.00;;;;;;5090162;28;20192;-58
2022/08/19 07:38:31;;;;;;;7.07;3.70;;;21.60;69.80;;;;;;5095069;28;20211;-57
2022/08/19 07:40:57;;;;;;;7.23;3.37;;;21.60;70.30;;;;;;5067862;28;20269;-58
2022/08/19 07:43:24;;;;;;;5.07;3.20;;;21.60;70.50;;;;;;5078378;28;20283;-57
2022/08/19 07:45:52;;;;;;;4.13;2.97;;;21.60;71.00;;;;;;5077635;28;20184;-57
2022/08/19 07:48:18;;;;;;;5.13;3.17;;;21.60;71.70;;;;;;5097661;28;20188;-58
2022/08/19 07:50:44;;;;;;;6.60;3.07;;;21.60;71.30;;;;;;5080464;28;20211;-57
2022/08/19 07:53:11;;;;;;;7.90;4.67;;;21.60;72.50;;;;;;5060679;28;20284;-58
2022/08/19 07:55:37;;;;;;;5.03;3.30;;;21.60;74.40;;;;;;5090751;28;20184;-57
2022/08/19 07:58:04;;;;;;;4.93;3.73;;;21.60;74.80;;;;;;5083731;28;20240;-57
2022/08/19 08:00:30;;;;;;;10.07;3.73;;;21.60;75.60;;;;;;5096834;28;20208;-57
2022/08/19 08:02:56;;;;;;;7.83;3.97;;;21.60;76.60;;;;;;5079354;28;20286;-57
2022/08/19 08:11:08;;;;;;;9.40;4.20;;;21.50;81.10;;;;;;5012308;28;20187;-57
2022/08/19 08:13:35;;;;;;;6.70;4.03;;;21.50;82.00;;;;;;5054683;28;20197;-58
2022/08/19 08:16:01;;;;;;;6.67;3.90;;;21.40;82.70;;;;;;5106166;28;20189;-57
2022/08/19 08:18:28;;;;;;;8.33;4.33;;;21.30;83.70;;;;;;5079124;28;20303;-58
2022/08/19 08:20:54;;;;;;;7.90;3.60;;;21.30;84.50;;;;;;5095899;28;20196;-57
2022/08/19 08:23:24;;;;;;;6.93;4.90;;;21.20;85.00;;;;;;5110378;28;20188;-58
2022/08/19 08:25:51;;;;;;;9.00;4.10;;;21.10;85.70;;;;;;5096989;27;20234;-57
2022/08/19 08:28:18;;;;;;;7.33;4.10;;;21.10;86.00;;;;;;5093680;28;20296;-57
2022/08/19 08:30:47;;;;;;;8.77;4.43;;;21.00;86.00;;;;;;5089668;28;20189;-58
2022/08/19 08:33:13;;;;;;;8.57;4.33;;;20.90;86.80;;;;;;5116462;27;20219;-58
2022/08/19 08:35:43;;;;;;;8.33;4.73;;;20.90;87.80;;;;;;5093062;28;20180;-58
2022/08/19 08:38:09;;;;;;;9.23;4.00;;;20.90;88.10;;;;;;5096431;28;20191;-58
2022/08/19 08:40:42;;;;;;;9.10;4.17;;;20.80;87.90;;;;;;5093138;28;20205;-58
2022/08/19 08:43:26;;;;;;;9.00;4.10;;;20.80;88.30;;;;;;5113635;28;20278;-58
2022/08/19 08:46:03;;;;;;;8.57;4.57;;;20.80;88.50;;;;;;5096522;28;20187;-59
2022/08/19 08:48:46;;;;;;;9.40;4.60;;;20.80;89.10;;;;;;5084754;28;20207;-58
2022/08/19 08:51:22;;;;;;;8.40;5.13;;;20.70;89.40;;;;;;5086249;28;20192;-58
2022/08/19 08:53:50;;;;;;;8.57;4.40;;;20.70;89.90;;;;;;5082277;28;20280;-58
2022/08/19 08:56:16;;;;;;;7.03;4.87;;;20.70;90.00;;;;;;5096174;28;20192;-58
2022/08/19 08:58:47;;;;;;;8.27;5.27;;;20.70;90.50;;;;;;5082847;27;20192;-58
2022/08/19 09:01:13;;;;;;;7.53;4.73;;;20.80;90.70;;;;;;5106454;28;20238;-58
2022/08/19 09:03:41;;;;;;;5.80;4.90;;;20.80;91.00;;;;;;5076644;28;20189;-59
2022/08/19 09:06:17;;;;;;;12.27;4.40;;;20.80;90.80;;;;;;5094828;28;20188;-59
2022/08/19 09:09:01;;;;;;;7.97;5.47;;;20.80;91.10;;;;;;5094525;28;20191;-59
2022/08/19 09:12:13;;;;;;;9.03;5.23;;;20.80;91.20;;;;;;5117018;27;20184;-59
2022/08/19 09:14:53;;;;;;;8.23;5.00;;;20.80;91.00;;;;;;5096618;27;20215;-59
2022/08/19 09:17:27;;;;;;;8.77;5.37;;;20.90;91.30;;;;;;5084821;28;20248;-59
2022/08/19 09:20:08;;;;;;;7.87;5.03;;;20.90;91.20;;;;;;5094670;28;20232;-58
2022/08/19 09:22:35;;;;;;;11.67;5.73;;;20.90;91.50;;;;;;5106222;28;20211;-56
2022/08/19 09:25:02;;;;;;;9.17;4.77;;;20.90;91.50;;;;;;5109926;28;20228;-57
2022/08/19 09:27:28;;;;;;;6.27;4.77;;;20.90;91.50;;;;;;5093040;28;20229;-57
2022/08/19 09:29:54;;;;;;;6.40;4.50;;;20.80;91.60;;;;;;5093546;28;20181;-57
2022/08/19 09:32:22;;;;;;;9.40;5.43;;;20.90;91.60;;;;;;5092613;28;20172;-57
2022/08/19 09:34:48;;;;;;;7.47;5.13;;;21.00;91.80;;;;;;5112570;28;20193;-57
2022/08/19 09:37:13;;;;;;;8.53;5.47;;;20.80;91.30;;;;;;5076841;28;20242;-57
2022/08/19 09:39:42;;;;;;;8.97;5.27;;;20.80;91.60;;;;;;5093862;28;20181;-59
2022/08/19 09:42:13;;;;;;;9.23;5.37;;;20.90;91.80;;;;;;5095797;28;20204;-59
2022/08/19 09:44:40;;;;;;;12.63;5.80;;;20.90;92.10;;;;;;5072116;28;20193;-59
2022/08/19 09:47:06;;;;;;;9.10;5.97;;;21.00;92.40;;;;;;5091776;28;20184;-59
2022/08/19 09:49:32;;;;;;;4.77;4.33;;;21.10;92.70;;;;;;5107869;28;20189;-59
2022/08/19 09:51:58;;;;;;;9.27;5.00;;;21.20;92.70;;;;;;5107715;28;20206;-60
2022/08/19 09:54:24;;;;;;;5.13;4.63;;;21.30;92.70;;;;;;5077276;28;20189;-60
2022/08/19 09:56:50;;;;;;;6.60;5.50;;;21.30;92.40;;;;;;5078050;28;20195;-60
2022/08/19 09:59:16;;;;;;;8.13;5.30;;;21.30;92.30;;;;;;5094908;28;20196;-60
2022/08/19 10:01:42;;;;;;;9.40;5.43;;;21.30;92.70;;;;;;5094433;28;20204;-60
2022/08/19 10:04:11;;;;;;;9.33;6.20;;;21.40;92.70;;;;;;5093843;28;20249;-59
2022/08/19 10:06:39;;;;;;;8.50;6.17;;;21.40;92.80;;;;;;5092484;28;20196;-60
2022/08/19 10:09:07;;;;;;;9.53;5.40;;;21.40;92.20;;;;;;5111831;28;20183;-59
2022/08/19 10:11:34;;;;;;;5.23;4.73;;;21.30;91.70;;;;;;5082662;28;20207;-59
2022/08/19 10:14:01;;;;;;;8.33;4.63;;;21.30;92.10;;;;;;5092136;28;20212;-59
2022/08/19 10:16:27;;;;;;;6.00;4.73;;;21.30;92.10;;;;;;5082658;28;20189;-59
2022/08/19 10:18:54;;;;;;;6.00;4.87;;;21.30;92.40;;;;;;5082656;28;20191;-59
2022/08/19 10:21:23;;;;;;;8.13;4.90;;;21.30;92.50;;;;;;5094094;28;20211;-59
2022/08/19 10:23:52;;;;;;;7.07;4.87;;;21.30;92.50;;;;;;5085617;28;20180;-59
2022/08/19 10:26:24;;;;;;;10.20;6.27;;;21.30;92.60;;;;;;5091646;28;20232;-59
2022/08/19 10:28:50;;;;;;;5.93;5.17;;;21.40;92.80;;;;;;5094972;28;20176;-59
2022/08/19 10:31:19;;;;;;;9.23;5.60;;;21.40;92.90;;;;;;5075933;28;20229;-59
2022/08/19 10:33:47;;;;;;;10.13;5.50;;;21.40;92.90;;;;;;5090458;28;20280;-59
2022/08/19 10:36:17;;;;;;;7.33;5.03;;;21.40;92.70;;;;;;5074015;28;20185;-59
2022/08/19 10:38:49;;;;;;;8.07;5.43;;;21.40;92.60;;;;;;5089116;28;20188;-59
2022/08/19 10:41:22;;;;;;;7.13;4.93;;;21.40;92.60;;;;;;5109871;28;20203;-59
2022/08/19 10:43:54;;;;;;;6.53;5.10;;;21.50;92.80;;;;;;5113092;28;20184;-59
2022/08/19 10:46:21;;;;;;;9.37;5.50;;;21.50;92.90;;;;;;5093749;28;20247;-59
2022/08/19 10:48:48;;;;;;;9.70;6.17;;;21.50;92.80;;;;;;5110010;28;20192;-60
2022/08/19 10:53:59;;;;;;;6.50;5.90;;;21.70;93.10;;;;;;5111137;28;20195;-59
2022/08/19 10:59:13;;;;;;;6.40;5.00;;;21.80;93.50;;;;;;5118494;28;20211;-58
2022/08/19 11:01:40;;;;;;;9.53;5.73;;;21.90;93.40;;;;;;5082847;28;20209;-59
2022/08/19 11:04:09;;;;;;;6.77;5.97;;;21.90;93.40;;;;;;5072308;28;20318;-57
2022/08/19 11:06:36;;;;;;;8.87;5.50;;;22.00;93.60;;;;;;5116924;28;20495;-58
2022/08/19 11:09:03;;;;;;;7.67;6.10;;;22.10;93.70;;;;;;5079769;28;20242;-56
2022/08/19 11:11:28;;;;;;;8.20;6.57;;;22.10;93.70;;;;;;5079996;28;20180;-56
2022/08/19 11:13:54;;;;;;;9.00;6.20;;;22.20;93.80;;;;;;5081690;28;20196;-56
2022/08/19 11:16:25;;;;;;;12.23;9.00;;;22.20;93.80;;;;;;5081566;28;20192;-55
2022/08/19 11:18:53;;;;;;;8.63;7.00;;;22.20;94.00;;;;;;5115405;28;20269;-56
2022/08/19 11:21:24;;;;;;;6.90;5.20;;;22.30;94.20;;;;;;5097420;28;20197;-56
2022/08/19 11:23:52;;;;;;;5.93;4.60;;;22.50;94.20;;;;;;5106402;28;20192;-56
2022/08/19 11:26:19;;;;;;;7.80;4.97;;;22.50;94.00;;;;;;5092779;28;20247;-54
2022/08/19 11:28:45;;;;;;;6.10;4.00;;;22.50;93.30;;;;;;5079574;28;20196;-56
2022/08/19 11:31:16;;;;;;;6.63;3.90;;;22.40;93.00;;;;;;5077768;28;20185;-57
2022/08/19 11:33:42;;;;;;;10.00;4.87;;;22.40;92.80;;;;;;5096609;28;20186;-57
2022/08/19 11:36:08;;;;;;;5.70;4.40;;;22.40;92.90;;;;;;5079082;28;20200;-57
2022/08/19 11:38:35;;;;;;;4.97;3.90;;;22.40;92.70;;;;;;5079483;28;20267;-57
2022/08/19 11:41:07;;;;;;;4.43;3.63;;;22.30;92.10;;;;;;5096726;28;20278;-58
2022/08/19 11:43:34;;;;;;;7.70;3.70;;;22.20;92.00;;;;;;5094966;28;20184;-58
2022/08/19 11:46:14;;;;;;;4.67;3.47;;;22.10;92.10;;;;;;5083738;28;20196;-57
2022/08/19 11:48:41;;;;;;;5.17;3.80;;;22.00;92.10;;;;;;5090973;28;20188;-58
2022/08/19 11:51:10;;;;;;;4.83;4.00;;;22.00;92.10;;;;;;5078896;28;20204;-58
2022/08/19 11:53:37;;;;;;;4.77;3.77;;;22.00;92.60;;;;;;5098049;28;20199;-56
2022/08/19 11:56:04;;;;;;;7.57;3.60;;;22.10;93.00;;;;;;5084332;28;20196;-57
2022/08/19 11:58:30;;;;;;;6.07;3.83;;;22.20;93.30;;;;;;5087150;28;20196;-57
2022/08/19 12:00:56;;;;;;;6.33;3.57;;;22.30;93.00;;;;;;5094761;28;20213;-57
2022/08/19 12:03:23;;;;;;;7.10;3.80;;;22.30;91.90;;;;;;5113495;28;20214;-57
2022/08/19 12:05:49;;;;;;;6.23;3.80;;;22.20;91.80;;;;;;5096366;28;20188;-58
2022/08/19 12:08:15;;;;;;;4.33;3.20;;;22.30;91.70;;;;;;5088733;28;20275;-57
2022/08/19 12:10:42;;;;;;;5.83;3.37;;;22.30;90.60;;;;;;5096848;28;20185;-57
2022/08/19 12:13:09;;;;;;;5.70;3.93;;;22.30;89.90;;;;;;5114105;28;20223;-57
2022/08/19 12:15:42;;;;;;;6.53;3.63;;;22.30;90.60;;;;;;5092627;28;20184;-57
2022/08/19 12:18:09;;;;;;;6.07;3.93;;;22.50;91.50;;;;;;5078494;28;20188;-57
2022/08/19 12:20:37;;;;;;;6.97;3.77;;;22.50;91.30;;;;;;5077729;28;20215;-57
2022/08/19 12:23:05;;;;;;;8.00;3.47;;;22.60;90.50;;;;;;5092838;28;20188;-57
2022/08/19 12:25:31;;;;;;;7.37;3.90;;;22.70;90.60;;;;;;5096611;28;20232;-57
2022/08/19 12:27:57;;;;;;;7.40;4.23;;;22.70;90.60;;;;;;5097094;28;20192;-58
2022/08/19 12:30:23;;;;;;;7.33;4.00;;;22.70;89.90;;;;;;5095875;28;20276;-56
2022/08/19 12:32:50;;;;;;;9.37;3.33;;;22.90;90.70;;;;;;5093248;28;20188;-57
2022/08/19 12:35:17;;;;;;;8.90;3.33;;;23.20;87.60;;;;;;5077995;28;20247;-57
2022/08/19 12:37:44;;;;;;;6.20;3.17;;;23.30;88.60;;;;;;5067236;28;20280;-57
2022/08/19 12:40:11;;;;;;;7.63;3.03;;;23.60;86.70;;;;;;5072836;28;20192;-56
2022/08/19 12:42:41;;;;;;;4.53;2.73;;;23.70;86.40;;;;;;5096925;28;20184;-57
2022/08/19 12:45:09;;;;;;;7.67;3.33;;;23.80;85.70;;;;;;5105165;28;20201;-57
2022/08/19 12:47:35;;;;;;;9.23;3.63;;;23.90;87.10;;;;;;5090896;28;20196;-57
2022/08/19 12:50:01;;;;;;;6.73;3.40;;;24.10;87.00;;;;;;5065594;28;20190;-57
2022/08/19 12:52:26;;;;;;;6.80;2.87;;;24.50;88.20;;;;;;5098170;28;20192;-58
2022/08/19 12:54:54;;;;;;;7.90;3.50;;;25.00;87.70;;;;;;5098523;28;20326;-58
2022/08/19 12:57:20;;;;;;;6.70;2.27;;;25.60;83.30;;;;;;5095930;28;20204;-58
2022/08/19 12:59:45;;;;;;;4.30;2.50;;;26.10;78.90;;;;;;5084249;28;20177;-58
2022/08/19 13:02:11;;;;;;;6.67;2.23;;;26.60;76.50;;;;;;5091951;27;20211;-58
2022/08/19 13:04:40;;;;;;;4.97;2.10;;;27.00;76.00;;;;;;5095181;28;20191;-58
2022/08/19 13:07:07;;;;;;;8.67;2.30;;;27.30;71.10;;;;;;5084195;28;20184;-57